Αρχική σελίδα
METAR-TAF:

METAR-TAF

Αεροδρόμια :

Μαλέ, Μαλδίβες

γεωγραφικό πλάτος: 04-12N, γεωγραφικό μήκος: 073-32E, υψόμετρο: 2 μ

Παρών καιρός

Η αναφορά έγινε 24 λεπτά πριν, στις 00:00 UTC
Άνεμος 10 kt από Δ/ΝΔ
Θερμοκρασία 29°C
Υγρασία 84%
Πίεση 1007 hPa
Ορατότητα 10 χλμ και άνω
Διάσπαρτα νέφη σε ύψος 1800 πόδια

METAR: VRMM 190000Z 24010KT 9999 SCT018 29/26 Q1007 NOSIG

Χρόνος: 05:24 (00:24 UTC)

Πρόγνωση Καιρού

Η αναφορά έγινε 1 ώρα και 24 λεπτά πριν, στις 23:00 UTC
Η πρόγνωση ισχύει από τις 19 στις 00 UTC έως τις 20 στις 06 UTC
Άνεμος 11 kt από Δ/ΝΔ
Ορατότητα 10 χλμ και άνω
Λίγα νέφη σε ύψος 1800 πόδια, Σωρείτες καθέτου αναπτύξεως.
Προσωρινά
από 19 στις 06 UTC έως τις 19 στις 12 UTC
Ορατότητα: 5000 μ
Λίγα νέφη σε ύψος 1700 πόδια, Σωρειτομελανίτες.
καταιγίδα, βροχή,

TAF: VRMM 182300Z 1900/2006 24011KT 9999 FEW018TCU TEMPO 1906/1912 5000 TSRA FEW017CB

Μετεωρολογικές αναφορές και προγνώσεις για περισσότερα από 4000 αεροδρόμια (δελτία METAR και TAF).

Οι διαθέσιμοι σταθμοί απεικονίζονται στο χάρτη με κίτρινες και κόκκινες κουκκίδες.

Μετακινήστε το ποντίκι πάνω από τις κουκκίδες για να δείτε το όνομα του σταθμού.

Στη συνέχεια, κάντε κλικ για να δείτε τις μετεωρολογικές αναφορές και τις προγνώσεις καιρού.

Για να αλλάξετε το χάρτη: κάντε κλικ στα πράσινα κουμπιά με τον μαύρο σταυρό για να ζουμάρετε, στο πράσινο κουμπί με την παύλα για να αφαιρέσετε το ζουμ ή στα πράσινα βέλη για να αντιπαραβάλλετε χάρτες.


METAR-TAF: